Pickwick Dam, TN (38365)

6:41 PM CDT on July 30, 2016 (GMT -0500)
Southern Cross | | Change Station

Elev 404 ft 34.99 °N, 88.25 °W | Updated 8 minutes ago

Clear
Clear
84.9 °F
Feels Like 97 °F
N
0.0
Wind Variable Wind from West

Today
High -- | Low -- °F
--% Chance of Precip.
Yesterday
High -- | Low -- °F
Precip. -- in
Pressure 29.95 in
Visibility 10.0 miles
Clouds Clear
Heat Index 97 °F
Dew Point 78 °F
Humidity 81%
Rainfall 0.00 in
Snow Depth Not available.
6:01 AM 7:57 PM
Waning Crescent, 10% visible
METAR KCRX 302335Z AUTO 26003KT 10SM CLR 29/24 A2995 RMK AO2
Pressure 29.95 in
Visibility 10.0 miles
Clouds Clear
Heat Index 97 °F
Dew Point 78 °F
Humidity 81%
Rainfall 0.00 in
Snow Depth Not available.
6:01 AM 7:57 PM
Waning Crescent, 10% visible
METAR KCRX 302335Z AUTO 26003KT 10SM CLR 29/24 A2995 RMK AO2

10-Day Weather Forecast

Almanac

Astronomy

Jul. 30, 2016 Rise Set
Actual Time
Civil Twilight
Nautical Twilight
Astronomical Twilight
Moon
Length of Visible Light
Length of Day
Tomorrow will be .
, % of the Moon is Illuminated

Today's Extremes

State Highs State Lows

Community

WunderPhotos

Upload Photos

1,928,680 photos uploaded!

WunderBlog® & News

Nearby

Air Quality

  Air Quality AQ Index Pollutant
Not available.

Snow Depth

Station Depth Elevation

Earthquake Activity

City Distance Mag. Time & Date
Minimum magnitude displayed is 2.5.

Coastal Water Temperatures

Place Temperature

Stations

Nearby Weather Stations

Station Location Temp. Windchill Dew Point Humidity Wind Precip. Elev Updated Type
                   

Watches & Warnings

There are currently no watches in effect.